This is the latest recevied weather packets stored in our database for station/object OK1VCF-4. If no packets are shown the sender has not sent any weather packets the latest 10 day(s).
| Time | Temp. | Humidity | Pressure | Rain* | Wind** | Luminosity | Snow |
|---|---|---|---|---|---|---|---|
| 1777226144 | 11.67° C | 38% | 1024.3 hPa | - | - | - | - |
| 1777220741 | 14.44° C | 30% | 1024.2 hPa | - | - | - | - |
| 1777194624 | 8.89° C | 52% | 1025.4 hPa | - | - | - | - |
| 1777185618 | 6.67° C | 60% | 1024.5 hPa | - | - | - | - |
| 1777145992 | 15.56° C | 37% | 1014.8 hPa | - | - | - | - |
| 1777145091 | 15.56° C | 38% | 1014.8 hPa | - | - | - | - |
| 1777109067 | 16.67° C | 42% | 1016.2 hPa | - | - | - | - |
| 1777105464 | 15° C | 50% | 1016.6 hPa | - | - | - | - |
| 1777090155 | 4.44° C | 88% | 1016.7 hPa | - | - | - | - |
| 1777089255 | 4.44° C | 86% | 1016.8 hPa | - | - | - | - |
| 1777085651 | 5.56° C | 83% | 1017 hPa | - | - | - | - |
| 1777082950 | 5.56° C | 82% | 1017.3 hPa | - | - | - | - |
| 1777080248 | 6.67° C | 82% | 1017.6 hPa | - | - | - | - |
| 1777077549 | 5.56° C | 84% | 1017.8 hPa | - | - | - | - |
| 1777067640 | 6.11° C | 82% | 1018.8 hPa | - | - | - | - |
| 1777058634 | 10° C | 68% | 1018.8 hPa | - | - | - | - |
| 1777046026 | 17.78° C | 42% | 1017.8 hPa | - | - | - | - |
| 1777028013 | 16.11° C | 36% | 1018.4 hPa | - | - | - | - |
| 1777020812 | 13.33° C | 46% | 1019.6 hPa | - | - | - | - |
| 1777019911 | 13.89° C | 48% | 1019.6 hPa | - | - | - | - |
| 1777019011 | 13.33° C | 52% | 1019.6 hPa | - | - | - | - |
| 1777003699 | 6.67° C | 78% | 1019.8 hPa | - | - | - | - |
| 1777002798 | 5.56° C | 80% | 1019.8 hPa | - | - | - | - |
| 1776991089 | 7.78° C | 72% | 1020.8 hPa | - | - | - | - |
| 1776980282 | 10° C | 60% | 1021.7 hPa | - | - | - | - |
* Rain since midnight (hover to see other rain measurements)
** Current wind speed in m/s (hover to see current wind gust speed)